sensor_id;sensor_type;location;lat;lon;timestamp;P1;durP1;ratioP1;P2;durP2;ratioP2
66523;SDS011;53350;52.210;5.160;2023-01-13T00:00:49;21.55;;;3.00;;
66523;SDS011;53350;52.210;5.160;2023-01-13T00:03:15;21.83;;;3.38;;
66523;SDS011;53350;52.210;5.160;2023-01-13T00:05:42;23.63;;;4.18;;
66523;SDS011;53350;52.210;5.160;2023-01-13T00:08:08;28.27;;;4.00;;
66523;SDS011;53350;52.210;5.160;2023-01-13T00:10:34;22.27;;;3.63;;
66523;SDS011;53350;52.210;5.160;2023-01-13T00:13:03;28.23;;;4.77;;
66523;SDS011;53350;52.210;5.160;2023-01-13T00:15:31;18.40;;;3.00;;
66523;SDS011;53350;52.210;5.160;2023-01-13T00:17:58;23.75;;;4.13;;
66523;SDS011;53350;52.210;5.160;2023-01-13T00:20:25;31.85;;;3.95;;
66523;SDS011;53350;52.210;5.160;2023-01-13T00:22:51;27.55;;;4.97;;
66523;SDS011;53350;52.210;5.160;2023-01-13T00:25:19;20.93;;;2.47;;
66523;SDS011;53350;52.210;5.160;2023-01-13T00:27:45;19.98;;;3.25;;
66523;SDS011;53350;52.210;5.160;2023-01-13T00:30:12;21.20;;;3.92;;
66523;SDS011;53350;52.210;5.160;2023-01-13T00:32:40;26.83;;;4.07;;
66523;SDS011;53350;52.210;5.160;2023-01-13T00:35:07;27.75;;;3.70;;
66523;SDS011;53350;52.210;5.160;2023-01-13T00:37:34;27.90;;;4.00;;
66523;SDS011;53350;52.210;5.160;2023-01-13T00:40:01;34.90;;;4.45;;
66523;SDS011;53350;52.210;5.160;2023-01-13T00:42:28;36.47;;;4.65;;
66523;SDS011;53350;52.210;5.160;2023-01-13T00:45:08;29.98;;;4.32;;
66523;SDS011;53350;52.210;5.160;2023-01-13T00:47:35;27.52;;;4.50;;
66523;SDS011;53350;52.210;5.160;2023-01-13T00:50:03;29.33;;;3.92;;
66523;SDS011;53350;52.210;5.160;2023-01-13T00:54:57;27.35;;;3.13;;
66523;SDS011;53350;52.210;5.160;2023-01-13T00:57:23;35.67;;;4.75;;
66523;SDS011;53350;52.210;5.160;2023-01-13T00:59:49;32.90;;;4.88;;
66523;SDS011;53350;52.210;5.160;2023-01-13T01:02:16;34.05;;;5.93;;
66523;SDS011;53350;52.210;5.160;2023-01-13T01:04:42;21.10;;;3.88;;
66523;SDS011;53350;52.210;5.160;2023-01-13T01:07:10;27.55;;;3.83;;
66523;SDS011;53350;52.210;5.160;2023-01-13T01:09:36;17.90;;;2.97;;
66523;SDS011;53350;52.210;5.160;2023-01-13T01:12:03;27.45;;;4.75;;
66523;SDS011;53350;52.210;5.160;2023-01-13T01:14:30;28.33;;;4.30;;
66523;SDS011;53350;52.210;5.160;2023-01-13T01:16:56;35.47;;;5.20;;
66523;SDS011;53350;52.210;5.160;2023-01-13T01:19:23;29.92;;;5.28;;
66523;SDS011;53350;52.210;5.160;2023-01-13T01:21:49;30.00;;;4.50;;
66523;SDS011;53350;52.210;5.160;2023-01-13T01:24:17;29.98;;;4.05;;
66523;SDS011;53350;52.210;5.160;2023-01-13T01:26:43;32.30;;;4.43;;
66523;SDS011;53350;52.210;5.160;2023-01-13T01:29:10;26.20;;;3.90;;
66523;SDS011;53350;52.210;5.160;2023-01-13T01:34:04;32.25;;;4.13;;
66523;SDS011;53350;52.210;5.160;2023-01-13T01:36:31;37.83;;;5.18;;
66523;SDS011;53350;52.210;5.160;2023-01-13T01:38:58;34.50;;;5.68;;
66523;SDS011;53350;52.210;5.160;2023-01-13T01:41:27;42.83;;;5.30;;
66523;SDS011;53350;52.210;5.160;2023-01-13T01:43:56;39.13;;;5.88;;
66523;SDS011;53350;52.210;5.160;2023-01-13T01:46:27;28.88;;;4.80;;
66523;SDS011;53350;52.210;5.160;2023-01-13T01:48:56;33.65;;;4.95;;
66523;SDS011;53350;52.210;5.160;2023-01-13T01:51:27;26.42;;;3.90;;
66523;SDS011;53350;52.210;5.160;2023-01-13T01:53:57;30.80;;;4.00;;
66523;SDS011;53350;52.210;5.160;2023-01-13T01:56:26;29.33;;;4.30;;
66523;SDS011;53350;52.210;5.160;2023-01-13T01:58:53;31.63;;;4.82;;
66523;SDS011;53350;52.210;5.160;2023-01-13T02:01:19;29.67;;;4.68;;
66523;SDS011;53350;52.210;5.160;2023-01-13T02:03:48;31.48;;;4.35;;
66523;SDS011;53350;52.210;5.160;2023-01-13T02:06:19;29.42;;;4.95;;
66523;SDS011;53350;52.210;5.160;2023-01-13T02:08:45;31.02;;;3.85;;
66523;SDS011;53350;52.210;5.160;2023-01-13T02:11:26;34.90;;;5.10;;
66523;SDS011;53350;52.210;5.160;2023-01-13T02:14:12;24.70;;;3.28;;
66523;SDS011;53350;52.210;5.160;2023-01-13T02:16:39;29.58;;;4.20;;
66523;SDS011;53350;52.210;5.160;2023-01-13T02:19:16;27.80;;;4.20;;
66523;SDS011;53350;52.210;5.160;2023-01-13T02:28:01;30.40;;;3.83;;
66523;SDS011;53350;52.210;5.160;2023-01-13T02:30:44;29.17;;;4.20;;
66523;SDS011;53350;52.210;5.160;2023-01-13T02:33:40;30.15;;;5.60;;
66523;SDS011;53350;52.210;5.160;2023-01-13T02:36:18;39.13;;;5.40;;
66523;SDS011;53350;52.210;5.160;2023-01-13T02:38:50;39.40;;;5.68;;
66523;SDS011;53350;52.210;5.160;2023-01-13T02:41:23;29.90;;;5.10;;
66523;SDS011;53350;52.210;5.160;2023-01-13T02:44:11;40.47;;;6.93;;
66523;SDS011;53350;52.210;5.160;2023-01-13T02:46:44;40.13;;;6.00;;
66523;SDS011;53350;52.210;5.160;2023-01-13T02:49:18;30.27;;;4.32;;
66523;SDS011;53350;52.210;5.160;2023-01-13T02:51:50;30.63;;;5.18;;
66523;SDS011;53350;52.210;5.160;2023-01-13T02:54:20;32.15;;;6.35;;
66523;SDS011;53350;52.210;5.160;2023-01-13T02:56:51;28.65;;;3.88;;
66523;SDS011;53350;52.210;5.160;2023-01-13T02:59:20;32.13;;;4.78;;
66523;SDS011;53350;52.210;5.160;2023-01-13T03:01:51;31.13;;;5.13;;
66523;SDS011;53350;52.210;5.160;2023-01-13T03:07:11;34.08;;;4.95;;
66523;SDS011;53350;52.210;5.160;2023-01-13T03:09:42;32.72;;;5.53;;
66523;SDS011;53350;52.210;5.160;2023-01-13T03:12:16;32.97;;;4.95;;
66523;SDS011;53350;52.210;5.160;2023-01-13T03:14:51;35.67;;;6.47;;
66523;SDS011;53350;52.210;5.160;2023-01-13T03:17:26;28.92;;;4.55;;
66523;SDS011;53350;52.210;5.160;2023-01-13T03:19:58;28.65;;;4.63;;
66523;SDS011;53350;52.210;5.160;2023-01-13T03:22:32;36.60;;;5.35;;
66523;SDS011;53350;52.210;5.160;2023-01-13T03:25:05;28.48;;;4.45;;
66523;SDS011;53350;52.210;5.160;2023-01-13T03:27:38;27.98;;;4.30;;
66523;SDS011;53350;52.210;5.160;2023-01-13T03:30:10;24.80;;;4.18;;
66523;SDS011;53350;52.210;5.160;2023-01-13T03:32:44;29.77;;;4.50;;
66523;SDS011;53350;52.210;5.160;2023-01-13T03:35:16;25.67;;;3.80;;
66523;SDS011;53350;52.210;5.160;2023-01-13T03:37:48;30.05;;;5.10;;
66523;SDS011;53350;52.210;5.160;2023-01-13T03:40:20;27.60;;;4.43;;
66523;SDS011;53350;52.210;5.160;2023-01-13T03:42:53;32.38;;;4.25;;
66523;SDS011;53350;52.210;5.160;2023-01-13T03:45:42;24.23;;;3.80;;
66523;SDS011;53350;52.210;5.160;2023-01-13T03:48:15;29.52;;;3.97;;
66523;SDS011;53350;52.210;5.160;2023-01-13T03:50:44;32.58;;;4.95;;
66523;SDS011;53350;52.210;5.160;2023-01-13T03:53:16;24.83;;;3.83;;
66523;SDS011;53350;52.210;5.160;2023-01-13T03:55:49;26.27;;;4.30;;
66523;SDS011;53350;52.210;5.160;2023-01-13T03:58:19;28.17;;;4.13;;
66523;SDS011;53350;52.210;5.160;2023-01-13T04:00:51;29.65;;;4.40;;
66523;SDS011;53350;52.210;5.160;2023-01-13T04:03:25;24.40;;;3.08;;
66523;SDS011;53350;52.210;5.160;2023-01-13T04:05:57;22.65;;;3.42;;
66523;SDS011;53350;52.210;5.160;2023-01-13T04:08:30;24.90;;;4.18;;
66523;SDS011;53350;52.210;5.160;2023-01-13T04:11:01;26.92;;;2.72;;
66523;SDS011;53350;52.210;5.160;2023-01-13T04:13:31;23.65;;;3.63;;
66523;SDS011;53350;52.210;5.160;2023-01-13T04:16:02;10.60;;;2.03;;
66523;SDS011;53350;52.210;5.160;2023-01-13T04:18:35;22.52;;;3.47;;
66523;SDS011;53350;52.210;5.160;2023-01-13T04:21:02;19.35;;;3.08;;
66523;SDS011;53350;52.210;5.160;2023-01-13T04:23:30;21.27;;;3.22;;
66523;SDS011;53350;52.210;5.160;2023-01-13T04:25:56;23.38;;;2.88;;
66523;SDS011;53350;52.210;5.160;2023-01-13T04:28:24;28.58;;;3.70;;
66523;SDS011;53350;52.210;5.160;2023-01-13T04:30:50;20.30;;;2.90;;
66523;SDS011;53350;52.210;5.160;2023-01-13T04:33:18;16.30;;;2.47;;
66523;SDS011;53350;52.210;5.160;2023-01-13T04:35:46;16.35;;;2.35;;
66523;SDS011;53350;52.210;5.160;2023-01-13T04:38:14;17.88;;;2.38;;
66523;SDS011;53350;52.210;5.160;2023-01-13T04:43:10;13.05;;;1.45;;
66523;SDS011;53350;52.210;5.160;2023-01-13T04:45:37;18.92;;;2.45;;
66523;SDS011;53350;52.210;5.160;2023-01-13T04:48:03;23.30;;;2.88;;
66523;SDS011;53350;52.210;5.160;2023-01-13T04:50:30;19.77;;;3.30;;
66523;SDS011;53350;52.210;5.160;2023-01-13T04:52:58;22.88;;;3.33;;
66523;SDS011;53350;52.210;5.160;2023-01-13T04:55:25;20.50;;;2.75;;
66523;SDS011;53350;52.210;5.160;2023-01-13T04:57:52;19.58;;;2.60;;
66523;SDS011;53350;52.210;5.160;2023-01-13T05:00:20;12.15;;;1.60;;
66523;SDS011;53350;52.210;5.160;2023-01-13T05:02:48;19.75;;;2.10;;
66523;SDS011;53350;52.210;5.160;2023-01-13T05:05:14;13.32;;;2.28;;
66523;SDS011;53350;52.210;5.160;2023-01-13T05:07:41;14.45;;;2.28;;
66523;SDS011;53350;52.210;5.160;2023-01-13T05:10:10;16.75;;;2.15;;
66523;SDS011;53350;52.210;5.160;2023-01-13T05:12:36;17.75;;;2.67;;
66523;SDS011;53350;52.210;5.160;2023-01-13T05:15:17;15.95;;;2.17;;
66523;SDS011;53350;52.210;5.160;2023-01-13T05:18:01;12.02;;;1.50;;
66523;SDS011;53350;52.210;5.160;2023-01-13T05:20:28;20.40;;;2.08;;
66523;SDS011;53350;52.210;5.160;2023-01-13T05:22:54;16.95;;;2.58;;
66523;SDS011;53350;52.210;5.160;2023-01-13T05:25:40;13.48;;;2.58;;
66523;SDS011;53350;52.210;5.160;2023-01-13T05:28:08;19.15;;;2.40;;
66523;SDS011;53350;52.210;5.160;2023-01-13T05:30:35;14.82;;;2.53;;
66523;SDS011;53350;52.210;5.160;2023-01-13T05:33:06;14.40;;;1.77;;
66523;SDS011;53350;52.210;5.160;2023-01-13T05:35:32;13.98;;;1.98;;
66523;SDS011;53350;52.210;5.160;2023-01-13T05:37:59;19.38;;;2.30;;
66523;SDS011;53350;52.210;5.160;2023-01-13T05:40:25;14.80;;;1.85;;
66523;SDS011;53350;52.210;5.160;2023-01-13T05:43:12;16.98;;;2.95;;
66523;SDS011;53350;52.210;5.160;2023-01-13T05:45:46;13.65;;;2.45;;
66523;SDS011;53350;52.210;5.160;2023-01-13T05:48:13;19.27;;;2.40;;
66523;SDS011;53350;52.210;5.160;2023-01-13T05:50:40;17.45;;;2.42;;
66523;SDS011;53350;52.210;5.160;2023-01-13T05:53:06;17.98;;;3.13;;
66523;SDS011;53350;52.210;5.160;2023-01-13T05:55:32;20.02;;;2.35;;
66523;SDS011;53350;52.210;5.160;2023-01-13T05:57:59;15.20;;;2.67;;
66523;SDS011;53350;52.210;5.160;2023-01-13T06:00:27;19.60;;;2.55;;
66523;SDS011;53350;52.210;5.160;2023-01-13T06:02:53;17.88;;;2.10;;
66523;SDS011;53350;52.210;5.160;2023-01-13T06:05:20;14.25;;;2.22;;
66523;SDS011;53350;52.210;5.160;2023-01-13T06:07:46;16.25;;;3.13;;
66523;SDS011;53350;52.210;5.160;2023-01-13T06:10:12;14.80;;;2.22;;
66523;SDS011;53350;52.210;5.160;2023-01-13T06:12:39;19.52;;;3.40;;
66523;SDS011;53350;52.210;5.160;2023-01-13T06:15:05;16.55;;;2.55;;
66523;SDS011;53350;52.210;5.160;2023-01-13T06:17:34;12.95;;;2.13;;
66523;SDS011;53350;52.210;5.160;2023-01-13T06:20:00;25.33;;;3.05;;
66523;SDS011;53350;52.210;5.160;2023-01-13T06:22:27;19.77;;;2.90;;
66523;SDS011;53350;52.210;5.160;2023-01-13T06:24:56;19.77;;;2.53;;
66523;SDS011;53350;52.210;5.160;2023-01-13T06:27:23;25.52;;;3.45;;
66523;SDS011;53350;52.210;5.160;2023-01-13T06:29:50;16.13;;;2.72;;
66523;SDS011;53350;52.210;5.160;2023-01-13T06:32:17;19.45;;;2.70;;
66523;SDS011;53350;52.210;5.160;2023-01-13T06:34:49;17.17;;;2.80;;
66523;SDS011;53350;52.210;5.160;2023-01-13T06:37:21;13.68;;;2.42;;
66523;SDS011;53350;52.210;5.160;2023-01-13T06:39:50;18.77;;;2.60;;
66523;SDS011;53350;52.210;5.160;2023-01-13T06:42:20;16.80;;;2.47;;
66523;SDS011;53350;52.210;5.160;2023-01-13T06:45:05;13.70;;;1.60;;
66523;SDS011;53350;52.210;5.160;2023-01-13T06:47:32;23.25;;;3.20;;
66523;SDS011;53350;52.210;5.160;2023-01-13T06:49:59;18.58;;;2.85;;
66523;SDS011;53350;52.210;5.160;2023-01-13T06:52:26;17.90;;;2.50;;
66523;SDS011;53350;52.210;5.160;2023-01-13T06:54:54;22.50;;;2.80;;
66523;SDS011;53350;52.210;5.160;2023-01-13T06:57:21;11.35;;;2.05;;
66523;SDS011;53350;52.210;5.160;2023-01-13T06:59:47;12.10;;;2.00;;
66523;SDS011;53350;52.210;5.160;2023-01-13T07:02:14;23.05;;;2.55;;
66523;SDS011;53350;52.210;5.160;2023-01-13T07:04:40;21.20;;;2.90;;
66523;SDS011;53350;52.210;5.160;2023-01-13T07:07:09;15.90;;;2.22;;
66523;SDS011;53350;52.210;5.160;2023-01-13T07:09:37;16.63;;;3.25;;
66523;SDS011;53350;52.210;5.160;2023-01-13T07:12:03;19.05;;;2.65;;
66523;SDS011;53350;52.210;5.160;2023-01-13T07:14:30;21.98;;;3.00;;
66523;SDS011;53350;52.210;5.160;2023-01-13T07:17:14;17.83;;;2.67;;
66523;SDS011;53350;52.210;5.160;2023-01-13T07:19:40;15.43;;;2.17;;
66523;SDS011;53350;52.210;5.160;2023-01-13T07:22:07;20.48;;;3.17;;
66523;SDS011;53350;52.210;5.160;2023-01-13T07:24:34;14.02;;;2.63;;
66523;SDS011;53350;52.210;5.160;2023-01-13T07:27:01;19.98;;;3.50;;
66523;SDS011;53350;52.210;5.160;2023-01-13T07:29:27;14.55;;;2.72;;
66523;SDS011;53350;52.210;5.160;2023-01-13T07:31:53;17.13;;;2.75;;
66523;SDS011;53350;52.210;5.160;2023-01-13T07:34:20;18.50;;;3.15;;
66523;SDS011;53350;52.210;5.160;2023-01-13T07:36:46;19.95;;;2.30;;
66523;SDS011;53350;52.210;5.160;2023-01-13T07:39:13;18.83;;;2.83;;
66523;SDS011;53350;52.210;5.160;2023-01-13T07:41:41;14.30;;;2.33;;
66523;SDS011;53350;52.210;5.160;2023-01-13T07:44:25;23.38;;;3.38;;
66523;SDS011;53350;52.210;5.160;2023-01-13T07:46:51;21.15;;;2.97;;
66523;SDS011;53350;52.210;5.160;2023-01-13T07:49:18;17.60;;;2.58;;
66523;SDS011;53350;52.210;5.160;2023-01-13T07:51:44;29.23;;;3.10;;
66523;SDS011;53350;52.210;5.160;2023-01-13T07:54:11;17.70;;;2.97;;
66523;SDS011;53350;52.210;5.160;2023-01-13T07:56:37;20.52;;;3.05;;
66523;SDS011;53350;52.210;5.160;2023-01-13T07:59:05;17.08;;;2.83;;
66523;SDS011;53350;52.210;5.160;2023-01-13T08:01:31;23.05;;;2.83;;
66523;SDS011;53350;52.210;5.160;2023-01-13T08:03:58;15.73;;;2.53;;
66523;SDS011;53350;52.210;5.160;2023-01-13T08:06:24;17.92;;;3.88;;
66523;SDS011;53350;52.210;5.160;2023-01-13T08:08:51;25.05;;;3.00;;
66523;SDS011;53350;52.210;5.160;2023-01-13T08:11:18;19.48;;;2.35;;
66523;SDS011;53350;52.210;5.160;2023-01-13T08:13:44;17.92;;;3.08;;
66523;SDS011;53350;52.210;5.160;2023-01-13T08:16:12;28.88;;;3.55;;
66523;SDS011;53350;52.210;5.160;2023-01-13T08:18:40;21.15;;;3.05;;
66523;SDS011;53350;52.210;5.160;2023-01-13T08:21:08;17.70;;;2.50;;
66523;SDS011;53350;52.210;5.160;2023-01-13T08:23:36;16.95;;;3.00;;
66523;SDS011;53350;52.210;5.160;2023-01-13T08:26:06;22.40;;;3.20;;
66523;SDS011;53350;52.210;5.160;2023-01-13T08:28:34;23.98;;;2.67;;
66523;SDS011;53350;52.210;5.160;2023-01-13T08:31:02;19.77;;;3.15;;
66523;SDS011;53350;52.210;5.160;2023-01-13T08:33:32;17.80;;;2.78;;
66523;SDS011;53350;52.210;5.160;2023-01-13T08:36:01;31.23;;;3.95;;
66523;SDS011;53350;52.210;5.160;2023-01-13T08:38:28;19.58;;;2.55;;
66523;SDS011;53350;52.210;5.160;2023-01-13T08:40:55;19.63;;;3.22;;
66523;SDS011;53350;52.210;5.160;2023-01-13T08:43:21;21.10;;;3.42;;
66523;SDS011;53350;52.210;5.160;2023-01-13T08:45:54;25.50;;;3.20;;
66523;SDS011;53350;52.210;5.160;2023-01-13T08:48:21;16.23;;;2.70;;
66523;SDS011;53350;52.210;5.160;2023-01-13T08:50:49;11.43;;;2.45;;
66523;SDS011;53350;52.210;5.160;2023-01-13T08:53:15;20.02;;;3.50;;
66523;SDS011;53350;52.210;5.160;2023-01-13T08:55:42;19.17;;;3.03;;
66523;SDS011;53350;52.210;5.160;2023-01-13T08:58:08;17.25;;;2.97;;
66523;SDS011;53350;52.210;5.160;2023-01-13T09:00:35;25.88;;;3.08;;
66523;SDS011;53350;52.210;5.160;2023-01-13T09:03:01;22.98;;;3.30;;
66523;SDS011;53350;52.210;5.160;2023-01-13T09:05:28;29.10;;;4.13;;
66523;SDS011;53350;52.210;5.160;2023-01-13T09:07:56;22.70;;;2.90;;
66523;SDS011;53350;52.210;5.160;2023-01-13T09:10:23;29.20;;;3.97;;
66523;SDS011;53350;52.210;5.160;2023-01-13T09:12:49;27.15;;;3.53;;
66523;SDS011;53350;52.210;5.160;2023-01-13T09:15:33;17.98;;;3.10;;
66523;SDS011;53350;52.210;5.160;2023-01-13T09:17:59;19.85;;;3.08;;
66523;SDS011;53350;52.210;5.160;2023-01-13T09:20:26;22.73;;;3.38;;
66523;SDS011;53350;52.210;5.160;2023-01-13T09:22:53;22.90;;;3.28;;
66523;SDS011;53350;52.210;5.160;2023-01-13T09:25:21;23.80;;;3.03;;
66523;SDS011;53350;52.210;5.160;2023-01-13T09:27:47;21.33;;;3.67;;
66523;SDS011;53350;52.210;5.160;2023-01-13T09:30:14;15.75;;;3.72;;
66523;SDS011;53350;52.210;5.160;2023-01-13T09:32:40;31.08;;;4.38;;
66523;SDS011;53350;52.210;5.160;2023-01-13T09:35:07;17.00;;;2.65;;
66523;SDS011;53350;52.210;5.160;2023-01-13T09:37:34;15.27;;;2.97;;
66523;SDS011;53350;52.210;5.160;2023-01-13T09:40:02;19.80;;;2.63;;
66523;SDS011;53350;52.210;5.160;2023-01-13T09:42:36;25.27;;;3.53;;
66523;SDS011;53350;52.210;5.160;2023-01-13T09:45:36;26.75;;;3.22;;
66523;SDS011;53350;52.210;5.160;2023-01-13T09:48:07;21.88;;;2.95;;
66523;SDS011;53350;52.210;5.160;2023-01-13T09:50:47;20.08;;;3.17;;
66523;SDS011;53350;52.210;5.160;2023-01-13T09:53:26;27.92;;;4.30;;
66523;SDS011;53350;52.210;5.160;2023-01-13T09:55:55;26.45;;;4.22;;
66523;SDS011;53350;52.210;5.160;2023-01-13T09:58:23;21.50;;;3.28;;
66523;SDS011;53350;52.210;5.160;2023-01-13T10:00:52;24.63;;;3.65;;
66523;SDS011;53350;52.210;5.160;2023-01-13T10:03:29;26.38;;;4.25;;
66523;SDS011;53350;52.210;5.160;2023-01-13T10:05:58;23.25;;;3.20;;
66523;SDS011;53350;52.210;5.160;2023-01-13T10:08:29;21.48;;;3.25;;
66523;SDS011;53350;52.210;5.160;2023-01-13T10:10:59;16.10;;;2.60;;
66523;SDS011;53350;52.210;5.160;2023-01-13T10:13:49;27.58;;;3.60;;
66523;SDS011;53350;52.210;5.160;2023-01-13T10:16:22;22.45;;;3.17;;
66523;SDS011;53350;52.210;5.160;2023-01-13T10:19:01;27.10;;;3.50;;
66523;SDS011;53350;52.210;5.160;2023-01-13T10:21:40;22.23;;;3.67;;
66523;SDS011;53350;52.210;5.160;2023-01-13T10:24:18;9.52;;;1.65;;
66523;SDS011;53350;52.210;5.160;2023-01-13T10:26:51;18.70;;;2.95;;
66523;SDS011;53350;52.210;5.160;2023-01-13T10:29:29;15.48;;;2.20;;
66523;SDS011;53350;52.210;5.160;2023-01-13T10:31:57;17.77;;;3.38;;
66523;SDS011;53350;52.210;5.160;2023-01-13T10:34:26;23.17;;;3.55;;
66523;SDS011;53350;52.210;5.160;2023-01-13T10:39:25;22.40;;;4.70;;
66523;SDS011;53350;52.210;5.160;2023-01-13T10:42:02;17.00;;;4.10;;
66523;SDS011;53350;52.210;5.160;2023-01-13T10:44:31;17.13;;;2.47;;
66523;SDS011;53350;52.210;5.160;2023-01-13T10:47:16;17.60;;;2.70;;
66523;SDS011;53350;52.210;5.160;2023-01-13T10:49:45;10.10;;;1.98;;
66523;SDS011;53350;52.210;5.160;2023-01-13T10:52:26;20.20;;;2.80;;
66523;SDS011;53350;52.210;5.160;2023-01-13T10:54:54;9.95;;;2.53;;
66523;SDS011;53350;52.210;5.160;2023-01-13T10:57:22;15.20;;;2.70;;
66523;SDS011;53350;52.210;5.160;2023-01-13T10:59:51;11.90;;;1.83;;
66523;SDS011;53350;52.210;5.160;2023-01-13T11:02:19;9.63;;;1.65;;
66523;SDS011;53350;52.210;5.160;2023-01-13T11:04:58;15.40;;;3.17;;
66523;SDS011;53350;52.210;5.160;2023-01-13T11:07:28;17.63;;;2.65;;
66523;SDS011;53350;52.210;5.160;2023-01-13T11:10:16;14.75;;;1.90;;
66523;SDS011;53350;52.210;5.160;2023-01-13T11:12:50;14.85;;;2.40;;
66523;SDS011;53350;52.210;5.160;2023-01-13T11:15:30;9.98;;;1.35;;
66523;SDS011;53350;52.210;5.160;2023-01-13T11:18:04;10.57;;;1.92;;
66523;SDS011;53350;52.210;5.160;2023-01-13T11:20:39;15.15;;;2.55;;
66523;SDS011;53350;52.210;5.160;2023-01-13T11:23:11;16.10;;;2.90;;
66523;SDS011;53350;52.210;5.160;2023-01-13T11:25:43;19.35;;;2.90;;
66523;SDS011;53350;52.210;5.160;2023-01-13T11:28:15;14.95;;;2.45;;
66523;SDS011;53350;52.210;5.160;2023-01-13T11:31:03;14.15;;;2.35;;
66523;SDS011;53350;52.210;5.160;2023-01-13T11:33:37;14.40;;;1.80;;
66523;SDS011;53350;52.210;5.160;2023-01-13T11:36:10;13.02;;;2.45;;
66523;SDS011;53350;52.210;5.160;2023-01-13T11:38:42;9.45;;;1.58;;
66523;SDS011;53350;52.210;5.160;2023-01-13T11:41:14;11.50;;;1.80;;
66523;SDS011;53350;52.210;5.160;2023-01-13T11:43:49;9.57;;;2.30;;
66523;SDS011;53350;52.210;5.160;2023-01-13T11:46:19;16.17;;;3.28;;
66523;SDS011;53350;52.210;5.160;2023-01-13T11:48:50;10.77;;;2.13;;
66523;SDS011;53350;52.210;5.160;2023-01-13T11:51:22;18.08;;;3.05;;
66523;SDS011;53350;52.210;5.160;2023-01-13T11:53:59;12.20;;;2.72;;
66523;SDS011;53350;52.210;5.160;2023-01-13T11:57:00;12.68;;;2.80;;
66523;SDS011;53350;52.210;5.160;2023-01-13T11:59:43;14.30;;;2.40;;
66523;SDS011;53350;52.210;5.160;2023-01-13T12:02:29;9.85;;;2.10;;
66523;SDS011;53350;52.210;5.160;2023-01-13T12:05:11;7.00;;;1.52;;
66523;SDS011;53350;52.210;5.160;2023-01-13T12:07:50;7.18;;;1.98;;
66523;SDS011;53350;52.210;5.160;2023-01-13T12:10:27;14.18;;;2.70;;
66523;SDS011;53350;52.210;5.160;2023-01-13T12:13:09;10.75;;;1.67;;
66523;SDS011;53350;52.210;5.160;2023-01-13T12:16:10;15.90;;;3.08;;
66523;SDS011;53350;52.210;5.160;2023-01-13T12:21:54;11.48;;;2.00;;
66523;SDS011;53350;52.210;5.160;2023-01-13T12:24:26;14.00;;;2.25;;
66523;SDS011;53350;52.210;5.160;2023-01-13T12:26:56;14.00;;;2.33;;
66523;SDS011;53350;52.210;5.160;2023-01-13T12:29:27;10.48;;;1.73;;
66523;SDS011;53350;52.210;5.160;2023-01-13T12:31:58;11.38;;;2.10;;
66523;SDS011;53350;52.210;5.160;2023-01-13T12:34:38;15.48;;;2.53;;
66523;SDS011;53350;52.210;5.160;2023-01-13T12:37:15;9.48;;;1.30;;
66523;SDS011;53350;52.210;5.160;2023-01-13T12:39:57;7.47;;;1.70;;
66523;SDS011;53350;52.210;5.160;2023-01-13T12:42:37;13.43;;;1.95;;
66523;SDS011;53350;52.210;5.160;2023-01-13T12:45:29;10.98;;;1.95;;
66523;SDS011;53350;52.210;5.160;2023-01-13T12:47:57;15.07;;;3.15;;
66523;SDS011;53350;52.210;5.160;2023-01-13T12:50:42;11.45;;;2.33;;
66523;SDS011;53350;52.210;5.160;2023-01-13T12:58:47;11.55;;;2.55;;
66523;SDS011;53350;52.210;5.160;2023-01-13T13:01:14;15.30;;;3.67;;
66523;SDS011;53350;52.210;5.160;2023-01-13T13:03:40;10.55;;;2.30;;
66523;SDS011;53350;52.210;5.160;2023-01-13T13:06:28;17.92;;;2.70;;
66523;SDS011;53350;52.210;5.160;2023-01-13T13:08:58;10.27;;;2.42;;
66523;SDS011;53350;52.210;5.160;2023-01-13T13:17:41;13.32;;;2.42;;
66523;SDS011;53350;52.210;5.160;2023-01-13T13:23:28;14.77;;;1.63;;
66523;SDS011;53350;52.210;5.160;2023-01-13T13:26:04;6.53;;;1.33;;
66523;SDS011;53350;52.210;5.160;2023-01-13T13:28:40;14.93;;;2.97;;
66523;SDS011;53350;52.210;5.160;2023-01-13T13:31:21;15.70;;;2.33;;
66523;SDS011;53350;52.210;5.160;2023-01-13T13:34:06;11.13;;;2.38;;
66523;SDS011;53350;52.210;5.160;2023-01-13T13:36:45;10.73;;;2.50;;
66523;SDS011;53350;52.210;5.160;2023-01-13T13:39:24;14.48;;;2.10;;
66523;SDS011;53350;52.210;5.160;2023-01-13T13:44:56;11.23;;;1.60;;
66523;SDS011;53350;52.210;5.160;2023-01-13T13:47:42;10.23;;;1.75;;
66523;SDS011;53350;52.210;5.160;2023-01-13T13:50:24;10.85;;;2.03;;
66523;SDS011;53350;52.210;5.160;2023-01-13T13:52:50;13.18;;;2.40;;
66523;SDS011;53350;52.210;5.160;2023-01-13T13:55:24;14.77;;;2.72;;
66523;SDS011;53350;52.210;5.160;2023-01-13T13:57:54;16.70;;;2.55;;
66523;SDS011;53350;52.210;5.160;2023-01-13T14:00:23;10.27;;;1.63;;
66523;SDS011;53350;52.210;5.160;2023-01-13T14:02:52;9.77;;;1.63;;
66523;SDS011;53350;52.210;5.160;2023-01-13T14:05:24;8.43;;;1.40;;
66523;SDS011;53350;52.210;5.160;2023-01-13T14:07:56;13.82;;;2.42;;
66523;SDS011;53350;52.210;5.160;2023-01-13T14:10:28;15.73;;;2.78;;
66523;SDS011;53350;52.210;5.160;2023-01-13T14:12:57;13.45;;;2.65;;
66523;SDS011;53350;52.210;5.160;2023-01-13T14:15:29;8.60;;;1.63;;
66523;SDS011;53350;52.210;5.160;2023-01-13T14:17:58;10.88;;;2.20;;
66523;SDS011;53350;52.210;5.160;2023-01-13T14:20:28;13.18;;;1.60;;
66523;SDS011;53350;52.210;5.160;2023-01-13T14:22:54;7.65;;;1.75;;
66523;SDS011;53350;52.210;5.160;2023-01-13T14:25:26;10.18;;;1.88;;
66523;SDS011;53350;52.210;5.160;2023-01-13T14:30:20;9.25;;;2.13;;
66523;SDS011;53350;52.210;5.160;2023-01-13T14:32:49;15.38;;;2.53;;
66523;SDS011;53350;52.210;5.160;2023-01-13T14:35:17;8.85;;;2.10;;
66523;SDS011;53350;52.210;5.160;2023-01-13T14:37:45;7.88;;;1.67;;
66523;SDS011;53350;52.210;5.160;2023-01-13T14:43:09;13.30;;;3.10;;
66523;SDS011;53350;52.210;5.160;2023-01-13T14:45:38;13.90;;;2.65;;
66523;SDS011;53350;52.210;5.160;2023-01-13T14:48:06;10.98;;;1.88;;
66523;SDS011;53350;52.210;5.160;2023-01-13T14:50:34;5.20;;;1.30;;
66523;SDS011;53350;52.210;5.160;2023-01-13T14:55:54;6.22;;;1.63;;
66523;SDS011;53350;52.210;5.160;2023-01-13T14:58:24;10.63;;;2.40;;
66523;SDS011;53350;52.210;5.160;2023-01-13T15:03:54;18.13;;;2.70;;
66523;SDS011;53350;52.210;5.160;2023-01-13T15:06:44;21.42;;;3.28;;
66523;SDS011;53350;52.210;5.160;2023-01-13T15:09:13;14.73;;;2.88;;
66523;SDS011;53350;52.210;5.160;2023-01-13T15:11:42;7.97;;;1.55;;
66523;SDS011;53350;52.210;5.160;2023-01-13T15:14:11;10.88;;;1.88;;
66523;SDS011;53350;52.210;5.160;2023-01-13T15:16:37;11.73;;;2.13;;
66523;SDS011;53350;52.210;5.160;2023-01-13T15:19:04;11.05;;;2.42;;
66523;SDS011;53350;52.210;5.160;2023-01-13T15:21:30;13.98;;;2.33;;
66523;SDS011;53350;52.210;5.160;2023-01-13T15:23:57;11.10;;;1.92;;
66523;SDS011;53350;52.210;5.160;2023-01-13T15:26:26;10.55;;;1.73;;
66523;SDS011;53350;52.210;5.160;2023-01-13T15:28:54;11.00;;;2.25;;
66523;SDS011;53350;52.210;5.160;2023-01-13T15:31:22;12.20;;;1.83;;
66523;SDS011;53350;52.210;5.160;2023-01-13T15:33:49;8.40;;;1.50;;
66523;SDS011;53350;52.210;5.160;2023-01-13T15:36:18;6.93;;;1.80;;
66523;SDS011;53350;52.210;5.160;2023-01-13T15:38:47;7.38;;;1.73;;
66523;SDS011;53350;52.210;5.160;2023-01-13T15:41:13;17.05;;;2.50;;
66523;SDS011;53350;52.210;5.160;2023-01-13T15:43:41;13.20;;;2.17;;
66523;SDS011;53350;52.210;5.160;2023-01-13T15:46:25;13.85;;;2.40;;
66523;SDS011;53350;52.210;5.160;2023-01-13T15:49:05;9.75;;;2.00;;